Time;durP1;ratioP1;P1;durP2;ratioP2;P2;SDS_P1;SDS_P2;PMS_P1;PMS_P2;Temp;Humidity;BMP_temperature;BMP_pressure;BME280_temperature;BME280_humidity;BME280_pressure;Samples;Min_cycle;Max_cycle;Signal;HPM_P1;HPM_P2
2022/09/26 00:01:51;;;;;;;10.77;2.95;;;10.90;99.90;;;;;;4994645;28;20038;-78
2022/09/26 00:04:20;;;;;;;12.75;3.13;;;11.00;99.90;;;;;;4996477;28;20082;-76
2022/09/26 00:06:46;;;;;;;8.82;2.80;;;11.00;99.90;;;;;;5011536;28;20043;-77
2022/09/26 00:09:14;;;;;;;10.95;2.92;;;10.90;99.90;;;;;;4994445;28;20378;-76
2022/09/26 00:11:40;;;;;;;11.02;2.85;;;10.90;99.90;;;;;;4995237;28;20042;-75
2022/09/26 00:14:17;;;;;;;9.85;2.70;;;10.90;99.90;;;;;;4995086;28;20061;-75
2022/09/26 00:16:43;;;;;;;10.88;3.05;;;10.90;99.90;;;;;;4994486;28;20347;-78
2022/09/26 00:19:09;;;;;;;7.32;2.50;;;10.90;99.90;;;;;;4995395;28;20046;-76
2022/09/26 00:21:36;;;;;;;7.43;2.90;;;10.90;99.90;;;;;;4994223;28;20089;-79
2022/09/26 00:24:02;;;;;;;7.88;2.80;;;10.90;99.90;;;;;;4995655;28;20054;-77
2022/09/26 00:26:29;;;;;;;8.38;2.88;;;10.90;99.90;;;;;;4994217;28;20042;-77
2022/09/26 00:28:56;;;;;;;10.63;2.70;;;10.80;99.90;;;;;;4994492;28;20127;-77
2022/09/26 00:31:28;;;;;;;7.10;2.70;;;10.80;99.90;;;;;;4995746;28;20427;-77
2022/09/26 00:33:54;;;;;;;11.25;2.70;;;10.80;99.90;;;;;;4995085;28;20177;-77
2022/09/26 00:36:20;;;;;;;10.55;3.97;;;10.80;99.90;;;;;;5010933;28;20113;-75
2022/09/26 00:38:46;;;;;;;9.88;2.67;;;10.80;99.90;;;;;;5010076;28;20454;-77
2022/09/26 00:41:12;;;;;;;12.80;3.13;;;10.80;99.90;;;;;;4995064;28;20112;-77
2022/09/26 00:43:44;;;;;;;12.77;3.33;;;10.80;99.90;;;;;;5009986;28;20062;-77
2022/09/26 00:46:22;;;;;;;11.13;2.58;;;10.80;99.90;;;;;;4995162;28;20425;-75
2022/09/26 00:49:10;;;;;;;11.10;3.90;;;10.80;99.90;;;;;;4995714;28;20141;-76
2022/09/26 00:51:38;;;;;;;7.95;3.17;;;10.80;99.90;;;;;;4995586;28;20053;-78
2022/09/26 00:54:10;;;;;;;10.10;3.33;;;10.80;99.90;;;;;;4994541;28;20495;-78
2022/09/26 00:56:37;;;;;;;10.68;3.15;;;10.80;99.90;;;;;;4995743;28;20054;-76
2022/09/26 00:59:12;;;;;;;7.75;2.78;;;10.80;99.90;;;;;;4994780;28;20046;-77
2022/09/26 01:01:38;;;;;;;11.75;2.95;;;10.80;99.90;;;;;;4994472;28;20073;-77
2022/09/26 01:04:05;;;;;;;9.95;3.10;;;10.80;99.90;;;;;;4995331;28;20089;-77
2022/09/26 01:06:31;;;;;;;7.30;2.83;;;10.80;99.90;;;;;;4994912;28;20518;-78
2022/09/26 01:09:00;;;;;;;13.93;3.90;;;10.80;99.90;;;;;;4993815;28;20081;-77
2022/09/26 01:11:28;;;;;;;12.75;4.03;;;10.80;99.90;;;;;;4994580;28;20125;-76
2022/09/26 01:13:55;;;;;;;14.82;3.55;;;10.80;99.90;;;;;;4992863;28;20046;-76
2022/09/26 01:16:21;;;;;;;18.38;3.30;;;10.80;99.90;;;;;;4977302;28;20053;-76
2022/09/26 01:18:47;;;;;;;10.02;3.10;;;10.80;99.90;;;;;;4994374;28;20399;-77
2022/09/26 01:21:49;;;;;;;10.48;3.60;;;10.80;99.90;;;;;;4993257;28;20050;-79
2022/09/26 01:24:51;;;;;;;13.40;3.70;;;10.80;99.90;;;;;;4994295;28;20082;-78
2022/09/26 01:27:26;;;;;;;17.75;4.55;;;10.80;99.90;;;;;;4994922;28;20046;-78
2022/09/26 01:30:04;;;;;;;11.45;3.70;;;10.70;99.90;;;;;;4994349;28;20123;-77
2022/09/26 01:32:48;;;;;;;14.68;3.80;;;10.70;99.90;;;;;;4993888;28;20459;-77
2022/09/26 01:35:33;;;;;;;12.00;3.63;;;10.70;99.90;;;;;;4994220;28;20046;-77
2022/09/26 01:38:25;;;;;;;16.45;3.83;;;10.70;99.90;;;;;;4994427;28;20117;-78
2022/09/26 01:41:19;;;;;;;10.93;3.83;;;10.70;99.90;;;;;;4994126;28;20064;-77
2022/09/26 01:44:10;;;;;;;13.13;3.97;;;10.70;99.90;;;;;;4992668;28;20138;-77
2022/09/26 01:47:14;;;;;;;10.65;4.15;;;10.80;99.90;;;;;;4993907;28;20104;-76
2022/09/26 01:49:39;;;;;;;12.57;4.32;;;10.80;99.90;;;;;;4993304;28;20101;-77
2022/09/26 01:52:19;;;;;;;10.90;4.28;;;10.80;99.90;;;;;;4993768;28;20046;-77
2022/09/26 01:54:55;;;;;;;12.25;4.28;;;10.80;99.90;;;;;;4994271;28;20046;-76
2022/09/26 01:57:27;;;;;;;9.65;3.92;;;10.80;99.90;;;;;;4992908;28;20144;-77
2022/09/26 01:59:58;;;;;;;14.73;4.78;;;10.80;99.90;;;;;;4994542;28;20082;-75
2022/09/26 02:02:28;;;;;;;13.00;3.80;;;10.80;99.90;;;;;;4993940;28;20105;-82
2022/09/26 02:04:59;;;;;;;14.48;4.38;;;10.80;99.90;;;;;;4992599;28;20497;-76
2022/09/26 02:07:51;;;;;;;16.98;4.05;;;10.80;99.90;;;;;;5009261;28;20050;-84
2022/09/26 02:10:33;;;;;;;11.52;3.95;;;10.80;99.90;;;;;;4993682;28;20081;-77
2022/09/26 02:13:07;;;;;;;13.20;3.75;;;10.80;99.90;;;;;;4960699;28;20133;-77
2022/09/26 02:15:35;;;;;;;11.60;4.00;;;10.80;99.90;;;;;;4992476;28;20046;-77
2022/09/26 02:18:11;;;;;;;13.05;3.95;;;10.90;99.90;;;;;;4993607;28;20383;-78
2022/09/26 02:20:40;;;;;;;13.27;4.30;;;10.90;99.90;;;;;;4992383;28;20082;-78
2022/09/26 02:23:07;;;;;;;18.10;4.32;;;10.90;99.90;;;;;;4993391;28;20050;-75
2022/09/26 02:25:33;;;;;;;10.10;4.00;;;10.90;99.90;;;;;;4978174;28;20049;-79
2022/09/26 02:27:59;;;;;;;17.70;4.38;;;10.90;99.90;;;;;;4996710;28;20102;-78
2022/09/26 02:30:25;;;;;;;12.32;4.10;;;11.00;99.90;;;;;;4998131;28;20136;-76
2022/09/26 02:32:51;;;;;;;13.07;4.43;;;11.00;99.90;;;;;;4996214;28;20050;-77
2022/09/26 02:38:04;;;;;;;20.23;4.72;;;11.00;99.90;;;;;;4996176;28;20133;-74
2022/09/26 02:41:01;;;;;;;12.35;4.60;;;11.10;99.90;;;;;;4996775;28;20462;-76
2022/09/26 02:43:30;;;;;;;11.90;4.60;;;11.10;99.90;;;;;;4995385;28;20065;-76
2022/09/26 02:46:25;;;;;;;14.82;5.00;;;11.10;99.90;;;;;;4996630;28;20233;-77
2022/09/26 02:49:09;;;;;;;14.55;4.78;;;11.10;99.90;;;;;;4996854;28;20517;-78
2022/09/26 02:52:11;;;;;;;16.20;4.72;;;11.10;99.90;;;;;;4996404;28;20050;-78
2022/09/26 02:54:52;;;;;;;13.18;5.45;;;11.10;99.90;;;;;;4979217;28;20128;-79
2022/09/26 02:57:46;;;;;;;18.23;4.47;;;11.10;99.90;;;;;;4996138;28;20076;-76
2022/09/26 03:00:30;;;;;;;15.63;5.88;;;11.10;99.90;;;;;;4996501;28;20576;-77
2022/09/26 03:03:36;;;;;;;13.38;5.03;;;11.10;99.90;;;;;;4995747;28;20111;-78
2022/09/26 03:06:04;;;;;;;;;;;11.00;99.90;;;;;;4979415;28;20054;-76
2022/09/26 03:08:39;;;;;;;13.27;5.18;;;11.00;99.90;;;;;;4995763;28;19921;-79
2022/09/26 03:11:09;;;;;;;13.68;5.75;;;11.00;99.90;;;;;;4995956;28;20042;-76
2022/09/26 03:13:37;;;;;;;15.23;5.47;;;11.00;99.90;;;;;;4995367;28;20071;-75
2022/09/26 03:16:05;;;;;;;14.73;5.50;;;11.00;99.90;;;;;;4996603;28;20487;-75
2022/09/26 03:18:39;;;;;;;17.65;5.75;;;11.00;99.90;;;;;;4996511;28;20568;-77
2022/09/26 03:21:06;;;;;;;16.13;5.35;;;11.00;99.90;;;;;;4997238;28;20080;-78
2022/09/26 03:23:31;;;;;;;17.73;5.97;;;11.00;99.90;;;;;;5011797;28;20499;-76
2022/09/26 03:26:12;;;;;;;19.85;5.80;;;11.00;99.90;;;;;;5012341;28;20050;-78
2022/09/26 03:28:40;;;;;;;19.73;6.07;;;10.90;99.90;;;;;;4997506;28;20061;-77
2022/09/26 03:31:06;;;;;;;13.80;6.05;;;11.00;99.90;;;;;;4995898;28;20160;-77
2022/09/26 03:33:31;;;;;;;17.52;6.30;;;10.90;99.90;;;;;;4996425;28;20046;-78
2022/09/26 03:35:58;;;;;;;17.48;6.40;;;10.90;99.90;;;;;;4996103;28;20046;-76
2022/09/26 03:38:25;;;;;;;14.48;6.22;;;10.90;99.90;;;;;;5011173;28;20042;-78
2022/09/26 03:40:52;;;;;;;15.35;6.53;;;10.90;99.90;;;;;;5011549;28;20058;-79
2022/09/26 03:43:17;;;;;;;21.83;8.25;;;10.90;99.90;;;;;;4994823;28;20100;-75
2022/09/26 03:45:43;;;;;;;20.05;7.47;;;10.80;99.90;;;;;;5011844;28;20050;-77
2022/09/26 03:48:09;;;;;;;20.80;6.90;;;10.80;99.90;;;;;;5011024;28;20046;-76
2022/09/26 03:50:34;;;;;;;23.88;8.23;;;10.80;99.90;;;;;;4994670;28;20153;-79
2022/09/26 03:53:01;;;;;;;18.15;7.18;;;10.80;99.90;;;;;;4978134;28;20050;-79
2022/09/26 03:55:27;;;;;;;18.33;7.73;;;10.70;99.90;;;;;;4978457;28;20054;-76
2022/09/26 03:57:53;;;;;;;18.13;7.72;;;10.70;99.90;;;;;;4994638;28;20046;-73
2022/09/26 04:00:19;;;;;;;17.50;7.20;;;10.70;99.90;;;;;;4995620;28;20053;-76
2022/09/26 04:02:44;;;;;;;21.75;7.35;;;10.70;99.90;;;;;;4994431;28;20050;-78
2022/09/26 04:05:10;;;;;;;20.67;7.55;;;10.70;99.90;;;;;;4978065;28;20394;-74
2022/09/26 04:07:36;;;;;;;26.05;7.88;;;10.70;99.90;;;;;;4994522;28;20144;-75
2022/09/26 04:10:02;;;;;;;21.50;8.55;;;10.70;99.90;;;;;;4994422;28;20054;-78
2022/09/26 04:12:28;;;;;;;20.58;8.68;;;10.70;99.90;;;;;;4994159;28;20046;-76
2022/09/26 04:14:54;;;;;;;16.58;7.53;;;10.70;99.90;;;;;;4994766;28;20069;-77
2022/09/26 04:17:19;;;;;;;22.58;8.07;;;10.70;99.90;;;;;;4995547;28;20511;-77
2022/09/26 04:19:45;;;;;;;23.73;9.63;;;10.70;99.90;;;;;;4999823;28;20042;-74
2022/09/26 04:22:11;;;;;;;22.25;9.32;;;10.70;99.90;;;;;;5001161;28;20049;-75
2022/09/26 04:24:37;;;;;;;25.77;9.52;;;10.70;99.90;;;;;;5001688;28;20065;-75
2022/09/26 04:27:03;;;;;;;19.58;8.88;;;10.70;99.90;;;;;;5000156;28;20129;-76
2022/09/26 04:29:29;;;;;;;21.80;9.57;;;10.70;99.90;;;;;;4995295;28;20345;-77
2022/09/26 04:31:55;;;;;;;24.80;9.32;;;10.70;99.90;;;;;;4996099;28;20133;-78
2022/09/26 04:34:23;;;;;;;24.90;10.60;;;10.70;99.90;;;;;;5011196;28;20053;-75
2022/09/26 04:36:50;;;;;;;24.70;9.98;;;10.70;99.90;;;;;;4994186;28;20438;-76
2022/09/26 04:39:16;;;;;;;21.92;10.23;;;10.70;99.90;;;;;;4977925;28;20050;-78
2022/09/26 04:41:41;;;;;;;24.23;10.18;;;10.70;99.90;;;;;;4978060;28;20042;-75
2022/09/26 04:44:09;;;;;;;21.52;9.70;;;10.60;99.90;;;;;;4993446;28;20129;-77
2022/09/26 04:46:35;;;;;;;24.48;10.77;;;10.70;99.90;;;;;;4995207;28;20038;-77
2022/09/26 04:49:01;;;;;;;25.60;10.85;;;10.60;99.90;;;;;;4994086;28;20549;-77
2022/09/26 04:51:30;;;;;;;27.42;10.77;;;10.60;99.90;;;;;;4994390;28;20046;-75
2022/09/26 04:53:56;;;;;;;23.90;10.70;;;10.60;99.90;;;;;;4995372;28;20065;-76
2022/09/26 04:56:24;;;;;;;26.10;10.35;;;10.60;99.90;;;;;;4993950;28;20126;-75
2022/09/26 04:58:50;;;;;;;26.30;10.27;;;10.70;99.90;;;;;;4994650;28;20054;-78
2022/09/26 05:01:20;;;;;;;24.10;10.70;;;10.70;99.90;;;;;;4994395;28;20109;-75
2022/09/26 05:03:47;;;;;;;25.98;11.57;;;10.70;99.90;;;;;;4994729;28;20368;-77
2022/09/26 05:06:14;;;;;;;21.70;10.10;;;10.70;99.90;;;;;;4994224;28;20058;-76
2022/09/26 05:08:41;;;;;;;;;;;10.70;99.90;;;;;;4994479;28;20056;-77
2022/09/26 05:11:07;;;;;;;;;;;10.70;99.90;;;;;;4994646;28;19928;-77
2022/09/26 05:13:34;;;;;;;21.35;10.07;;;10.70;99.90;;;;;;4993780;28;19922;-77
2022/09/26 05:16:01;;;;;;;22.98;8.90;;;10.70;99.90;;;;;;4992962;28;20469;-76
2022/09/26 05:18:28;;;;;;;26.02;10.88;;;10.70;99.90;;;;;;4993215;28;20475;-77
2022/09/26 05:20:55;;;;;;;23.10;9.93;;;10.70;99.90;;;;;;4993574;28;20046;-79
2022/09/26 05:26:21;;;;;;;25.02;10.52;;;10.70;99.90;;;;;;4994723;28;20134;-75
2022/09/26 05:28:55;;;;;;;24.52;10.18;;;10.60;99.90;;;;;;4976875;28;20450;-76
2022/09/26 05:31:24;;;;;;;24.63;10.68;;;10.60;99.90;;;;;;4993027;28;20046;-76
2022/09/26 05:33:50;;;;;;;24.00;10.93;;;10.70;99.90;;;;;;4992896;28;20089;-75
2022/09/26 05:36:17;;;;;;;22.65;10.00;;;10.60;99.90;;;;;;4993673;28;20140;-77
2022/09/26 05:38:44;;;;;;;25.27;10.32;;;10.60;99.90;;;;;;4992724;28;20065;-77
2022/09/26 05:41:12;;;;;;;25.05;10.38;;;10.60;99.90;;;;;;4977653;28;20127;-75
2022/09/26 05:43:38;;;;;;;21.92;10.45;;;10.60;99.90;;;;;;4993146;28;20085;-76
2022/09/26 05:46:06;;;;;;;21.17;7.97;;;10.60;99.90;;;;;;4993449;28;20061;-75
2022/09/26 05:48:34;;;;;;;24.02;8.07;;;10.60;99.90;;;;;;5009149;28;20050;-76
2022/09/26 05:51:10;;;;;;;20.67;9.48;;;10.70;99.90;;;;;;4993017;28;20060;-74
2022/09/26 05:53:37;;;;;;;22.52;9.85;;;10.60;99.90;;;;;;4994399;28;20076;-79
2022/09/26 05:56:05;;;;;;;24.75;9.27;;;10.70;99.90;;;;;;4993167;28;20053;-76
2022/09/26 05:58:33;;;;;;;24.13;9.00;;;10.60;99.90;;;;;;4993576;28;20046;-77
2022/09/26 06:01:04;;;;;;;22.05;10.18;;;10.60;99.90;;;;;;4993567;28;20059;-75
2022/09/26 06:03:33;;;;;;;32.95;9.75;;;10.60;99.90;;;;;;4993457;28;20042;-78
2022/09/26 06:06:04;;;;;;;22.42;8.68;;;10.60;99.90;;;;;;4993574;28;20042;-78
2022/09/26 06:08:30;;;;;;;19.88;7.70;;;10.60;99.90;;;;;;4993243;28;20051;-78
2022/09/26 06:11:04;;;;;;;21.85;8.75;;;10.60;99.90;;;;;;4976846;28;20360;-77
2022/09/26 06:13:31;;;;;;;24.55;8.90;;;10.60;99.90;;;;;;4992990;28;20050;-78
2022/09/26 06:16:06;;;;;;;19.90;8.18;;;10.60;99.90;;;;;;4992170;28;20460;-77
2022/09/26 06:18:38;;;;;;;19.73;6.65;;;10.60;99.90;;;;;;4993781;28;20138;-75
2022/09/26 06:21:06;;;;;;;22.02;7.40;;;10.60;99.90;;;;;;4993465;28;20485;-77
2022/09/26 06:23:35;;;;;;;16.27;7.47;;;10.70;99.90;;;;;;4993139;28;20046;-75
2022/09/26 06:26:02;;;;;;;16.80;7.03;;;10.70;99.90;;;;;;4992937;28;20066;-75
2022/09/26 06:28:29;;;;;;;20.40;7.72;;;10.70;99.90;;;;;;4993240;28;20196;-77
2022/09/26 06:30:56;;;;;;;17.27;7.20;;;10.70;99.90;;;;;;4993144;28;20061;-78
2022/09/26 06:33:25;;;;;;;22.67;7.32;;;10.60;99.90;;;;;;4993205;28;20399;-77
2022/09/26 06:36:10;;;;;;;12.07;6.10;;;10.70;99.90;;;;;;4993871;28;20105;-78
2022/09/26 06:38:37;;;;;;;17.30;6.20;;;10.70;99.90;;;;;;4991865;28;20051;-78
2022/09/26 06:41:03;;;;;;;15.55;6.05;;;10.80;99.90;;;;;;4993832;28;20512;-76
2022/09/26 06:43:30;;;;;;;16.42;6.40;;;10.80;99.90;;;;;;5007742;28;20072;-78
2022/09/26 06:45:58;;;;;;;19.85;6.18;;;10.80;99.90;;;;;;4992804;28;20086;-76
2022/09/26 06:48:26;;;;;;;14.02;5.65;;;10.80;99.90;;;;;;4991908;28;20101;-76
2022/09/26 06:50:54;;;;;;;13.65;5.68;;;10.70;99.90;;;;;;4993166;28;20129;-79
2022/09/26 06:53:23;;;;;;;17.85;6.00;;;10.80;99.90;;;;;;4992831;28;20445;-76
2022/09/26 06:55:49;;;;;;;12.57;5.35;;;10.80;99.90;;;;;;4993280;28;20411;-80
2022/09/26 06:58:17;;;;;;;13.65;5.13;;;10.80;99.90;;;;;;4991632;28;20050;-74
2022/09/26 07:00:43;;;;;;;13.40;5.20;;;10.80;99.90;;;;;;4991864;28;20092;-79
2022/09/26 07:03:10;;;;;;;13.68;4.40;;;10.80;99.90;;;;;;4993046;28;20085;-78
2022/09/26 07:05:36;;;;;;;13.52;4.70;;;10.80;99.90;;;;;;4992794;28;20052;-77
2022/09/26 07:08:05;;;;;;;14.30;3.85;;;10.90;99.90;;;;;;4992727;28;20054;-76
2022/09/26 07:10:33;;;;;;;14.32;5.22;;;10.90;99.90;;;;;;4993068;28;20054;-79
2022/09/26 07:13:04;;;;;;;18.27;5.03;;;10.90;99.90;;;;;;4996409;28;20050;-77
2022/09/26 07:15:39;;;;;;;15.77;5.78;;;10.90;99.90;;;;;;4995894;28;20086;-79
2022/09/26 07:18:05;;;;;;;11.90;4.43;;;10.90;99.90;;;;;;4995357;28;20046;-78
2022/09/26 07:20:34;;;;;;;10.10;3.90;;;10.90;99.90;;;;;;4996729;28;20081;-86
2022/09/26 07:23:05;;;;;;;14.27;4.57;;;10.90;99.90;;;;;;4996350;28;20050;-80
2022/09/26 07:25:32;;;;;;;15.50;5.57;;;10.90;99.90;;;;;;4996231;28;20137;-79
2022/09/26 07:27:58;;;;;;;16.08;4.60;;;10.80;99.90;;;;;;4995478;28;20131;-79
2022/09/26 07:30:25;;;;;;;12.05;4.65;;;10.80;99.90;;;;;;4996081;28;20410;-77
2022/09/26 07:32:50;;;;;;;12.88;4.95;;;10.80;99.90;;;;;;4979765;28;20141;-76
2022/09/26 07:35:17;;;;;;;14.95;4.50;;;10.70;99.90;;;;;;4995491;28;20137;-78
2022/09/26 07:37:51;;;;;;;13.77;5.50;;;10.70;99.90;;;;;;4996233;28;20057;-79
2022/09/26 07:40:19;;;;;;;16.73;3.58;;;10.80;99.90;;;;;;4995983;28;20069;-79
2022/09/26 07:42:46;;;;;;;15.68;5.57;;;10.70;99.90;;;;;;4995207;28;20120;-76
2022/09/26 07:45:12;;;;;;;12.18;5.05;;;10.70;99.90;;;;;;4978594;28;20051;-78
2022/09/26 07:50:22;;;;;;;12.13;5.43;;;10.70;99.90;;;;;;4996524;28;20058;-77
2022/09/26 07:52:49;;;;;;;17.45;6.00;;;10.70;99.90;;;;;;4962333;28;20042;-80
2022/09/26 07:55:23;;;;;;;19.13;5.20;;;10.70;99.90;;;;;;4994854;28;20054;-80
2022/09/26 07:57:49;;;;;;;16.10;5.43;;;10.70;99.90;;;;;;4995650;28;20042;-81
2022/09/26 08:00:18;;;;;;;13.57;5.45;;;10.80;99.90;;;;;;4996077;28;20379;-78
2022/09/26 08:02:45;;;;;;;13.27;5.50;;;10.90;99.90;;;;;;4994634;28;20058;-77
2022/09/26 08:05:20;;;;;;;15.60;5.30;;;10.90;99.90;;;;;;4995572;28;20060;-78
2022/09/26 08:07:47;;;;;;;14.55;5.10;;;11.10;99.90;;;;;;4995822;28;20137;-77
2022/09/26 08:10:19;;;;;;;17.05;5.90;;;11.20;99.90;;;;;;4994459;28;20129;-77
2022/09/26 08:12:46;;;;;;;16.67;5.43;;;11.20;99.90;;;;;;4996070;28;20424;-78
2022/09/26 08:15:12;;;;;;;13.70;5.55;;;11.40;99.90;;;;;;4995596;28;20053;-76
2022/09/26 08:17:38;;;;;;;14.82;4.85;;;11.40;99.90;;;;;;4994222;28;20057;-77
2022/09/26 08:20:04;;;;;;;11.55;4.55;;;11.50;99.90;;;;;;4995486;28;20046;-75
2022/09/26 08:22:30;;;;;;;13.52;4.65;;;11.50;99.90;;;;;;4993739;28;20056;-83
2022/09/26 08:24:57;;;;;;;12.48;4.80;;;11.60;99.90;;;;;;4993884;28;20449;-79
2022/09/26 08:27:23;;;;;;;14.95;5.13;;;11.60;99.90;;;;;;4994618;28;20375;-81
2022/09/26 08:29:50;;;;;;;13.90;5.25;;;11.60;99.90;;;;;;4995167;28;20057;-77
2022/09/26 08:32:17;;;;;;;11.30;4.70;;;11.50;99.90;;;;;;4995242;28;20133;-75
2022/09/26 08:34:44;;;;;;;19.45;4.68;;;11.60;99.90;;;;;;5010721;28;20050;-78
2022/09/26 08:37:10;;;;;;;13.07;5.10;;;11.60;99.90;;;;;;4995725;28;20057;-77
2022/09/26 08:39:36;;;;;;;11.02;4.05;;;11.70;99.90;;;;;;4995346;28;20050;-78
2022/09/26 08:42:27;;;;;;;13.88;4.47;;;11.60;99.90;;;;;;4961962;28;20054;-79
2022/09/26 08:48:31;;;;;;;10.60;3.95;;;11.80;99.90;;;;;;4995379;28;20050;-78
2022/09/26 08:51:10;;;;;;;10.95;4.13;;;11.70;99.90;;;;;;4996131;28;20391;-76
2022/09/26 08:53:47;;;;;;;15.90;4.20;;;11.80;99.90;;;;;;4995501;28;20046;-77
2022/09/26 08:56:27;;;;;;;12.35;4.15;;;11.70;99.90;;;;;;4995542;28;20054;-76
2022/09/26 08:58:57;;;;;;;15.73;4.40;;;11.70;99.90;;;;;;4994777;28;20137;-81
2022/09/26 09:01:27;;;;;;;12.60;3.88;;;11.90;99.90;;;;;;4995311;28;20050;-75
2022/09/26 09:04:31;;;;;;;18.20;5.63;;;11.90;99.90;;;;;;5010567;28;20043;-79
2022/09/26 09:07:04;;;;;;;22.38;4.80;;;11.90;99.90;;;;;;4995928;28;20057;-76
2022/09/26 09:09:30;;;;;;;14.05;4.22;;;11.90;99.90;;;;;;5010447;28;20050;-74
2022/09/26 09:12:16;;;;;;;11.43;4.60;;;12.00;99.90;;;;;;4996518;28;20046;-79
2022/09/26 09:15:13;;;;;;;15.82;5.22;;;12.10;99.90;;;;;;4996077;28;20129;-78
2022/09/26 09:17:42;;;;;;;15.55;4.97;;;12.10;99.90;;;;;;4996125;28;20047;-76
2022/09/26 09:20:20;;;;;;;14.80;4.55;;;12.20;99.90;;;;;;5010635;28;20054;-77
2022/09/26 09:22:54;;;;;;;16.95;5.93;;;12.10;99.90;;;;;;4994523;28;20055;-74
2022/09/26 09:25:39;;;;;;;14.20;4.82;;;12.10;99.90;;;;;;4995301;28;20046;-76
2022/09/26 09:28:16;;;;;;;13.65;5.03;;;12.10;99.90;;;;;;4993827;28;20128;-76
2022/09/26 09:30:49;;;;;;;;;;;12.10;99.90;;;;;;4995171;28;20050;-80
2022/09/26 09:33:23;;;;;;;13.98;4.57;;;12.00;99.90;;;;;;5010620;28;19921;-77
2022/09/26 09:35:54;;;;;;;14.45;5.40;;;12.10;99.90;;;;;;4994939;28;20057;-80
2022/09/26 09:38:25;;;;;;;20.67;6.28;;;12.10;99.90;;;;;;4994818;28;20048;-76
2022/09/26 09:40:59;;;;;;;13.65;4.70;;;12.00;99.90;;;;;;4995741;28;20092;-74
2022/09/26 09:43:34;;;;;;;14.00;5.35;;;12.00;99.90;;;;;;5011925;28;20042;-77
2022/09/26 09:46:11;;;;;;;17.05;6.50;;;12.00;99.90;;;;;;4998790;28;20128;-77
2022/09/26 09:48:37;;;;;;;12.48;4.63;;;12.00;99.90;;;;;;5000256;28;20050;-78
2022/09/26 09:51:35;;;;;;;16.17;5.07;;;12.10;99.90;;;;;;4967331;28;20065;-76
2022/09/26 09:54:21;;;;;;;15.55;5.45;;;12.10;99.90;;;;;;4983643;28;20137;-76
2022/09/26 09:57:06;;;;;;;16.77;4.47;;;12.10;99.90;;;;;;5014428;28;20057;-77
2022/09/26 09:59:48;;;;;;;13.75;5.25;;;12.10;99.90;;;;;;5000142;28;20050;-76
2022/09/26 10:02:28;;;;;;;15.15;5.15;;;12.10;99.90;;;;;;4998051;28;20106;-77
2022/09/26 10:05:17;;;;;;;15.88;5.22;;;12.10;99.90;;;;;;4999695;28;20094;-77
2022/09/26 10:07:49;;;;;;;15.13;4.63;;;12.10;99.90;;;;;;5000593;28;20106;-76
2022/09/26 10:10:23;;;;;;;15.35;5.55;;;11.90;99.90;;;;;;4998719;28;20340;-77
2022/09/26 10:12:50;;;;;;;18.05;5.50;;;12.10;99.90;;;;;;4996432;28;20104;-80
2022/09/26 10:15:21;;;;;;;;;;;12.00;99.90;;;;;;4997434;28;20046;-77
2022/09/26 10:18:04;;;;;;;14.63;4.97;;;12.10;99.90;;;;;;4997292;28;19922;-77
2022/09/26 10:20:34;;;;;;;16.20;5.65;;;12.10;99.90;;;;;;4998963;28;20108;-79
2022/09/26 10:23:02;;;;;;;9.90;3.67;;;12.10;99.90;;;;;;4997864;28;20058;-77
2022/09/26 10:25:28;;;;;;;15.98;5.85;;;12.20;99.90;;;;;;5012701;28;20491;-78
2022/09/26 10:27:56;;;;;;;16.98;5.43;;;12.20;99.90;;;;;;4997320;28;20046;-77
2022/09/26 10:30:25;;;;;;;17.35;5.75;;;12.20;99.90;;;;;;4997917;28;20050;-77
2022/09/26 10:32:54;;;;;;;14.48;5.75;;;12.30;99.90;;;;;;4996452;28;20046;-79
2022/09/26 10:35:38;;;;;;;15.80;5.82;;;12.30;99.90;;;;;;4995221;28;20054;-77
2022/09/26 10:38:21;;;;;;;16.48;5.40;;;12.20;99.90;;;;;;4994966;28;20124;-78
2022/09/26 10:40:58;;;;;;;12.60;5.03;;;12.20;99.90;;;;;;4993742;28;20042;-78
2022/09/26 10:43:35;;;;;;;14.85;5.88;;;12.10;99.90;;;;;;4975864;28;20062;-80
2022/09/26 10:46:20;;;;;;;14.23;5.47;;;12.20;99.90;;;;;;5009116;28;20137;-80
2022/09/26 10:48:52;;;;;;;11.82;5.55;;;12.30;99.90;;;;;;4997706;28;20133;-81
2022/09/26 10:51:28;;;;;;;13.82;6.13;;;12.30;99.90;;;;;;4995785;28;20163;-81
2022/09/26 10:54:33;;;;;;;17.73;6.13;;;12.10;99.90;;;;;;4995922;28;20066;-78
2022/09/26 10:56:59;;;;;;;26.75;10.05;;;12.00;99.90;;;;;;4975999;28;20141;-77
2022/09/26 10:59:30;;;;;;;12.45;5.97;;;11.90;99.90;;;;;;4995972;28;20054;-78
2022/09/26 11:01:58;;;;;;;16.92;5.85;;;11.90;99.90;;;;;;4996378;28;20061;-83
2022/09/26 11:07:29;;;;;;;15.18;6.00;;;12.00;99.90;;;;;;4997050;28;20133;-78
2022/09/26 11:10:05;;;;;;;16.27;5.88;;;12.00;99.90;;;;;;4997341;28;20471;-78
2022/09/26 11:12:38;;;;;;;14.25;5.50;;;12.20;99.90;;;;;;4997260;28;20050;-80
2022/09/26 11:15:13;;;;;;;13.45;5.90;;;12.10;99.90;;;;;;5013269;28;20046;-80
2022/09/26 11:17:46;;;;;;;14.82;6.13;;;12.20;99.90;;;;;;4997416;28;20058;-78
2022/09/26 11:20:39;;;;;;;12.20;5.00;;;12.20;99.90;;;;;;4997438;28;20049;-78
2022/09/26 11:23:42;;;;;;;14.77;6.95;;;12.30;99.90;;;;;;4997869;28;20081;-78
2022/09/26 11:26:48;;;;;;;17.38;6.53;;;12.10;99.90;;;;;;4997159;28;20050;-80
2022/09/26 11:29:22;;;;;;;22.98;6.88;;;12.10;99.90;;;;;;4980716;28;20196;-80
2022/09/26 11:31:48;;;;;;;14.50;7.90;;;12.10;99.90;;;;;;4996276;28;20156;-80
2022/09/26 11:34:21;;;;;;;15.73;7.18;;;12.00;99.90;;;;;;4995592;28;20050;-79
2022/09/26 11:37:10;;;;;;;16.60;6.40;;;12.10;99.90;;;;;;4996948;28;20054;-77
2022/09/26 11:39:44;;;;;;;17.95;6.78;;;12.20;99.90;;;;;;4986607;28;20054;-81
2022/09/26 11:42:28;;;;;;;14.68;6.32;;;12.10;99.90;;;;;;4997938;28;20077;-81
2022/09/26 11:45:10;;;;;;;16.83;6.30;;;12.20;99.90;;;;;;4997493;28;20093;-78
2022/09/26 11:47:51;;;;;;;18.95;6.90;;;12.20;99.90;;;;;;4997006;28;20050;-79
2022/09/26 11:50:41;;;;;;;17.10;7.15;;;12.20;99.90;;;;;;5012294;28;20053;-81
2022/09/26 11:53:39;;;;;;;14.80;6.25;;;12.10;99.90;;;;;;4980010;28;20064;-79
2022/09/26 11:56:35;;;;;;;17.33;7.00;;;12.10;99.90;;;;;;4996507;28;20050;-79
2022/09/26 11:59:26;;;;;;;14.48;5.68;;;12.00;99.90;;;;;;4998833;28;20057;-76
2022/09/26 12:02:37;;;;;;;17.98;7.03;;;12.10;99.90;;;;;;4997300;28;20062;-81
2022/09/26 12:05:24;;;;;;;13.35;5.95;;;12.10;99.90;;;;;;4997450;28;20387;-80
2022/09/26 12:08:29;;;;;;;14.70;5.65;;;12.20;99.90;;;;;;4995482;28;20056;-80
2022/09/26 12:11:32;;;;;;;12.70;5.45;;;12.20;99.90;;;;;;4997046;28;20042;-82
2022/09/26 12:14:33;;;;;;;13.13;5.30;;;12.20;99.90;;;;;;5011139;28;20053;-82
2022/09/26 12:17:18;;;;;;;10.82;5.00;;;12.10;99.90;;;;;;4997024;28;20046;-82
2022/09/26 12:20:00;;;;;;;10.25;4.25;;;12.20;99.90;;;;;;4996956;28;20053;-80
2022/09/26 12:22:42;;;;;;;13.02;4.90;;;12.10;99.90;;;;;;5012025;28;20053;-83
2022/09/26 12:25:25;;;;;;;9.75;4.72;;;12.10;99.90;;;;;;4998236;28;20043;-80
2022/09/26 12:27:54;;;;;;;11.35;4.63;;;12.20;99.90;;;;;;4997990;28;20047;-83
2022/09/26 12:30:42;;;;;;;10.63;4.78;;;12.20;99.90;;;;;;5000724;28;20047;-84
2022/09/26 12:33:33;;;;;;;11.45;4.57;;;12.20;99.90;;;;;;4999123;28;20046;-84
2022/09/26 12:36:20;;;;;;;10.20;4.70;;;12.30;99.90;;;;;;5014780;28;20069;-81
2022/09/26 12:38:48;;;;;;;9.30;4.60;;;12.20;99.90;;;;;;4995911;28;20145;-82
2022/09/26 12:41:28;;;;;;;8.45;4.50;;;12.30;99.90;;;;;;5012643;28;20050;-82
2022/09/26 12:44:13;;;;;;;7.95;4.05;;;12.30;99.90;;;;;;4997580;28;20522;-81
2022/09/26 12:47:03;;;;;;;9.52;3.97;;;12.20;99.90;;;;;;5012002;28;20104;-76
2022/09/26 12:49:30;;;;;;;8.32;3.72;;;12.30;99.90;;;;;;4997516;28;20053;-80
2022/09/26 12:52:06;;;;;;;8.18;3.63;;;12.30;99.90;;;;;;5000228;28;20050;-81
2022/09/26 12:54:58;;;;;;;8.48;4.05;;;12.20;99.90;;;;;;4996453;28;20430;-80
2022/09/26 12:57:30;;;;;;;9.65;4.13;;;12.20;99.90;;;;;;4997610;28;20372;-83
2022/09/26 13:00:12;;;;;;;7.40;3.72;;;12.10;99.90;;;;;;4994152;28;20046;-80
2022/09/26 13:02:58;;;;;;;8.52;4.35;;;12.10;99.90;;;;;;4995745;28;20484;-81
2022/09/26 13:05:42;;;;;;;9.43;3.63;;;12.10;99.90;;;;;;4996328;28;20046;-77
2022/09/26 13:08:37;;;;;;;8.73;3.88;;;12.10;99.90;;;;;;4998738;28;20054;-83
2022/09/26 13:11:46;;;;;;;11.10;4.10;;;12.20;99.90;;;;;;4995588;28;20054;-81
2022/09/26 13:14:38;;;;;;;7.97;4.20;;;12.20;99.90;;;;;;4976782;28;20053;-83
2022/09/26 13:17:28;;;;;;;9.35;3.65;;;12.20;99.90;;;;;;4997429;28;20097;-81
2022/09/26 13:20:13;;;;;;;7.15;3.42;;;12.30;99.90;;;;;;4997155;28;20152;-80
2022/09/26 13:22:49;;;;;;;7.28;3.80;;;12.50;99.90;;;;;;4996995;28;20054;-82
2022/09/26 13:25:22;;;;;;;7.38;3.60;;;12.40;99.90;;;;;;4979794;28;20498;-82
2022/09/26 13:28:14;;;;;;;11.35;4.28;;;12.40;99.90;;;;;;4997485;28;20412;-83